createdAt,value
2023-03-04T00:02:13.349Z,68.45
2023-03-04T00:04:40.011Z,68.66
2023-03-04T00:07:06.781Z,68.89
2023-03-04T00:09:33.489Z,68.91
2023-03-04T00:12:00.231Z,69.07
2023-03-04T00:14:30.005Z,69.24
2023-03-04T00:16:57.156Z,69.16
2023-03-04T00:19:24.019Z,69.10
2023-03-04T00:21:50.824Z,68.66
2023-03-04T00:24:17.556Z,68.99
2023-03-04T00:26:44.337Z,69.23
2023-03-04T00:29:11.137Z,69.16
2023-03-04T00:31:37.989Z,69.17
2023-03-04T00:34:04.786Z,69.07
2023-03-04T00:36:31.776Z,68.98
2023-03-04T00:38:58.470Z,68.88
2023-03-04T00:41:25.355Z,68.93
2023-03-04T00:43:52.180Z,69.13
2023-03-04T00:46:18.969Z,68.74
2023-03-04T00:48:45.635Z,69.05
2023-03-04T00:51:12.466Z,69.18
2023-03-04T00:53:39.224Z,68.94
2023-03-04T00:56:06.452Z,68.90
2023-03-04T00:58:33.199Z,68.88
2023-03-04T01:00:59.918Z,69.05
2023-03-04T01:03:26.931Z,69.03
2023-03-04T01:05:53.660Z,68.92
2023-03-04T01:08:20.308Z,69.38
2023-03-04T01:10:48.432Z,69.27
2023-03-04T01:13:15.125Z,68.84
2023-03-04T01:15:43.145Z,68.67
2023-03-04T01:18:09.987Z,69.18
2023-03-04T01:20:36.674Z,68.85
2023-03-04T01:23:03.418Z,68.83
2023-03-04T01:25:30.169Z,68.97
2023-03-04T01:27:58.983Z,68.97
2023-03-04T01:30:25.652Z,69.11
2023-03-04T01:32:52.403Z,68.95
2023-03-04T01:35:19.130Z,68.65
2023-03-04T01:37:45.874Z,68.51
2023-03-04T01:40:13.639Z,68.87
2023-03-04T01:42:40.272Z,68.94
2023-03-04T01:45:07.871Z,68.85
2023-03-04T01:47:35.942Z,68.85
2023-03-04T01:50:05.778Z,69.02
2023-03-04T01:52:32.520Z,69.10
2023-03-04T01:54:59.320Z,69.07
2023-03-04T01:57:26.652Z,69.20
2023-03-04T02:00:15.027Z,69.25
2023-03-04T02:02:42.000Z,68.98
2023-03-04T02:05:08.858Z,69.19
2023-03-04T02:07:35.704Z,69.33
2023-03-04T02:10:03.097Z,69.08
2023-03-04T02:12:29.846Z,69.54
2023-03-04T02:14:56.585Z,69.27
2023-03-04T02:17:26.772Z,69.39
2023-03-04T02:20:03.546Z,69.37
2023-03-04T02:22:30.579Z,69.74
2023-03-04T02:25:01.112Z,69.59
2023-03-04T02:27:28.141Z,68.93
2023-03-04T02:29:54.809Z,69.76
2023-03-04T02:32:21.606Z,69.79
2023-03-04T02:34:51.633Z,69.63
2023-03-04T02:37:21.680Z,69.33
2023-03-04T02:39:51.533Z,69.60
2023-03-04T02:42:18.667Z,69.91
2023-03-04T02:44:48.248Z,69.98
2023-03-04T02:47:18.648Z,70.05
2023-03-04T02:49:46.845Z,69.60
2023-03-04T02:52:21.827Z,69.72
2023-03-04T02:54:48.749Z,69.63
2023-03-04T02:57:16.768Z,70.11
2023-03-04T02:59:46.981Z,69.87
2023-03-04T03:02:18.340Z,69.69
2023-03-04T03:04:45.396Z,69.57
2023-03-04T03:07:14.969Z,69.19
2023-03-04T03:09:41.935Z,69.28
2023-03-04T03:12:08.634Z,69.45
2023-03-04T03:14:35.404Z,69.55
2023-03-04T03:17:03.973Z,69.20
2023-03-04T03:19:31.650Z,69.25
2023-03-04T03:22:00.298Z,69.48
2023-03-04T03:24:27.174Z,70.13
2023-03-04T03:26:53.949Z,70.23
2023-03-04T03:29:20.732Z,70.00
2023-03-04T03:31:47.476Z,69.76
2023-03-04T03:34:14.155Z,69.65
2023-03-04T03:36:41.874Z,70.03
2023-03-04T03:39:08.790Z,69.74
2023-03-04T03:41:35.481Z,69.24
2023-03-04T03:44:02.131Z,69.30
2023-03-04T03:46:29.800Z,69.65
2023-03-04T03:48:56.482Z,68.80
2023-03-04T03:51:23.162Z,69.24
2023-03-04T03:53:50.036Z,69.71
2023-03-04T03:56:16.718Z,70.17
2023-03-04T03:58:43.488Z,70.11
2023-03-04T04:01:10.203Z,70.40
2023-03-04T04:03:36.870Z,70.42
2023-03-04T04:06:03.667Z,70.48
2023-03-04T04:08:30.310Z,69.88
2023-03-04T04:10:57.015Z,70.11
2023-03-04T04:13:23.734Z,70.34
2023-03-04T04:15:53.894Z,70.12
2023-03-04T04:18:20.983Z,70.54
2023-03-04T04:20:48.010Z,70.56
2023-03-04T04:23:14.696Z,70.49
2023-03-04T04:25:41.405Z,70.06
2023-03-04T04:28:08.165Z,69.44
2023-03-04T04:30:35.486Z,69.60
2023-03-04T04:33:04.657Z,70.16
2023-03-04T04:35:35.340Z,69.72
2023-03-04T04:38:02.122Z,70.29
2023-03-04T04:40:28.807Z,70.16
2023-03-04T04:42:55.480Z,69.83
2023-03-04T04:45:22.703Z,69.61
2023-03-04T04:47:49.430Z,69.40
2023-03-04T04:50:16.506Z,69.06
2023-03-04T04:52:43.267Z,69.13
2023-03-04T04:55:10.461Z,69.22
2023-03-04T04:57:37.831Z,69.28
2023-03-04T05:00:05.878Z,69.68
2023-03-04T05:02:36.322Z,69.66
2023-03-04T05:05:04.310Z,69.64
2023-03-04T05:07:30.946Z,69.71
2023-03-04T05:09:57.615Z,69.52
2023-03-04T05:12:24.283Z,70.13
2023-03-04T05:14:51.039Z,69.99
2023-03-04T05:17:17.917Z,69.70
2023-03-04T05:19:44.727Z,70.01
2023-03-04T05:22:11.502Z,69.95
2023-03-04T05:24:38.185Z,70.01
2023-03-04T05:27:04.962Z,70.50
2023-03-04T05:29:31.867Z,70.21
2023-03-04T05:31:58.571Z,70.29
2023-03-04T05:34:25.272Z,70.67
2023-03-04T05:36:51.996Z,70.64
2023-03-04T05:39:18.737Z,70.89
2023-03-04T05:41:45.486Z,70.76
2023-03-04T05:44:12.251Z,71.06
2023-03-04T05:46:39.024Z,70.99
2023-03-04T05:49:05.804Z,71.14
2023-03-04T05:51:32.561Z,71.23
2023-03-04T05:53:59.343Z,71.31
2023-03-04T05:56:26.165Z,71.83
2023-03-04T05:58:52.858Z,71.95
2023-03-04T06:01:19.568Z,72.04
2023-03-04T06:03:48.524Z,72.19
2023-03-04T06:06:15.297Z,72.36
2023-03-04T06:08:42.036Z,72.58
2023-03-04T06:11:08.821Z,72.48
2023-03-04T06:13:35.560Z,72.30
2023-03-04T06:16:02.389Z,72.15
2023-03-04T06:18:29.516Z,72.83
2023-03-04T06:20:59.706Z,72.88
2023-03-04T06:23:26.802Z,72.49
2023-03-04T06:25:54.864Z,72.81
2023-03-04T06:28:21.700Z,73.42
2023-03-04T06:30:48.387Z,73.44
2023-03-04T06:33:15.140Z,73.45
2023-03-04T06:35:41.880Z,72.99
2023-03-04T06:38:08.823Z,72.77
2023-03-04T06:40:35.797Z,73.30
2023-03-04T06:43:02.487Z,73.21
2023-03-04T06:45:29.168Z,73.06
2023-03-04T06:47:55.911Z,74.04
2023-03-04T06:50:22.558Z,74.04
2023-03-04T06:52:49.344Z,73.63
2023-03-04T06:55:16.060Z,73.76
2023-03-04T06:57:42.921Z,73.94
2023-03-04T07:00:10.168Z,74.12
2023-03-04T07:02:36.813Z,73.96
2023-03-04T07:05:03.715Z,73.80
2023-03-04T07:07:30.477Z,73.97
2023-03-04T07:09:58.894Z,74.07
2023-03-04T07:12:26.153Z,74.00
2023-03-04T07:15:00.580Z,74.76
2023-03-04T07:17:27.261Z,74.79
2023-03-04T07:19:53.892Z,74.95
2023-03-04T07:22:20.557Z,75.28
2023-03-04T07:24:47.218Z,75.34
2023-03-04T07:27:13.984Z,74.48
2023-03-04T07:29:40.631Z,75.54
2023-03-04T07:32:08.834Z,75.96
2023-03-04T07:34:35.654Z,75.86
2023-03-04T07:37:02.293Z,75.45
2023-03-04T07:39:28.984Z,75.40
2023-03-04T07:41:55.892Z,75.30
2023-03-04T07:44:22.630Z,75.64
2023-03-04T07:46:49.403Z,75.87
2023-03-04T07:49:16.172Z,75.94
2023-03-04T07:51:42.906Z,75.79
2023-03-04T07:54:10.008Z,75.57
2023-03-04T07:56:36.664Z,75.31
2023-03-04T07:59:03.749Z,75.55
2023-03-04T08:01:36.109Z,75.48
2023-03-04T08:04:04.787Z,75.25
2023-03-04T08:06:31.939Z,75.37
2023-03-04T08:09:01.890Z,75.70
2023-03-04T08:11:29.651Z,76.10
2023-03-04T08:13:56.776Z,75.79
2023-03-04T08:16:24.291Z,75.57
2023-03-04T08:18:53.760Z,75.90
2023-03-04T08:21:21.585Z,75.74
2023-03-04T08:23:48.530Z,76.17
2023-03-04T08:26:22.187Z,75.99
2023-03-04T08:28:49.162Z,75.82
2023-03-04T08:31:17.148Z,75.73
2023-03-04T08:33:44.626Z,75.59
2023-03-04T08:36:11.755Z,76.21
2023-03-04T08:38:38.584Z,75.90
2023-03-04T08:41:05.750Z,75.94
2023-03-04T08:43:33.316Z,75.78
2023-03-04T08:46:00.104Z,75.87
2023-03-04T08:48:26.825Z,75.59
2023-03-04T08:50:53.709Z,75.70
2023-03-04T08:53:20.633Z,76.22
2023-03-04T08:55:47.749Z,75.69
2023-03-04T08:58:14.816Z,75.51
2023-03-04T09:00:48.270Z,75.94
2023-03-04T09:03:15.635Z,75.95
2023-03-04T09:05:42.434Z,75.31
2023-03-04T09:08:09.482Z,76.09
2023-03-04T09:10:36.122Z,76.27
2023-03-04T09:13:02.846Z,76.11
2023-03-04T09:15:29.607Z,76.16
2023-03-04T09:17:56.325Z,75.75
2023-03-04T09:20:23.206Z,75.24
2023-03-04T09:22:50.033Z,75.79
2023-03-04T09:25:16.688Z,75.71
2023-03-04T09:27:43.531Z,75.57
2023-03-04T09:30:10.855Z,75.50
2023-03-04T09:32:37.544Z,75.41
2023-03-04T09:35:05.241Z,75.60
2023-03-04T09:37:31.977Z,75.24
2023-03-04T09:39:58.862Z,74.85
2023-03-04T09:42:28.722Z,74.72
2023-03-04T09:44:55.944Z,74.73
2023-03-04T09:47:23.164Z,74.38
2023-03-04T09:50:00.850Z,74.43
2023-03-04T09:52:35.063Z,73.94
2023-03-04T09:55:25.459Z,73.99
2023-03-04T09:57:53.776Z,73.59
2023-03-04T10:00:24.997Z,73.54
2023-03-04T10:03:12.032Z,74.15
2023-03-04T10:06:18.723Z,73.86
2023-03-04T10:09:18.915Z,73.74
2023-03-04T10:11:49.290Z,72.97
2023-03-04T10:14:21.803Z,73.17
2023-03-04T10:16:56.840Z,72.66
2023-03-04T10:19:32.424Z,72.52
2023-03-04T10:21:59.319Z,72.37
2023-03-04T10:24:29.636Z,72.11
2023-03-04T10:27:01.597Z,71.65
2023-03-04T10:29:28.996Z,71.51
2023-03-04T10:31:56.445Z,71.64
2023-03-04T10:34:23.380Z,71.33
2023-03-04T10:37:03.075Z,71.29
2023-03-04T10:39:32.143Z,70.85
2023-03-04T10:42:01.422Z,70.33
2023-03-04T10:44:29.037Z,69.94
2023-03-04T10:46:57.377Z,69.51
2023-03-04T10:49:25.435Z,69.34
2023-03-04T10:52:02.770Z,69.33
2023-03-04T10:54:50.420Z,68.66
2023-03-04T10:57:19.598Z,68.95
2023-03-04T10:59:57.524Z,67.33
2023-03-04T11:02:29.575Z,67.98
2023-03-04T11:05:14.625Z,67.62
2023-03-04T11:07:55.239Z,68.53
2023-03-04T11:10:36.534Z,67.85
2023-03-04T11:13:12.327Z,67.49
2023-03-04T11:16:06.133Z,67.63
2023-03-04T11:18:43.792Z,67.75
2023-03-04T11:21:28.959Z,67.60
2023-03-04T11:24:04.524Z,67.12
2023-03-04T11:26:32.866Z,67.37
2023-03-04T11:29:16.081Z,66.89
2023-03-04T11:32:01.198Z,67.40
2023-03-04T11:34:36.838Z,67.22
2023-03-04T11:37:10.295Z,67.49
2023-03-04T11:39:39.791Z,67.00
2023-03-04T11:42:41.121Z,66.33
2023-03-04T11:45:28.692Z,66.63
2023-03-04T11:48:01.873Z,66.83
2023-03-04T11:50:39.129Z,66.34
2023-03-04T11:53:37.971Z,66.43
2023-03-04T11:56:26.024Z,66.69
2023-03-04T11:59:20.970Z,67.08
2023-03-04T12:02:14.523Z,67.40
2023-03-04T12:05:12.288Z,66.82
2023-03-04T12:07:57.562Z,66.93
2023-03-04T12:10:33.971Z,66.52
2023-03-04T12:13:26.208Z,66.46
2023-03-04T12:16:15.245Z,65.60
2023-03-04T12:19:03.533Z,66.10
2023-03-04T12:21:48.626Z,66.03
2023-03-04T12:24:37.251Z,65.05
2023-03-04T12:27:38.054Z,65.52
2023-03-04T12:30:22.970Z,64.84
2023-03-04T12:32:58.447Z,65.71
2023-03-04T12:35:40.165Z,65.32
2023-03-04T12:38:25.236Z,64.82
2023-03-04T12:41:06.965Z,65.22
2023-03-04T12:43:45.819Z,65.50
2023-03-04T12:46:26.838Z,65.41
2023-03-04T12:49:02.629Z,65.03
2023-03-04T12:51:34.658Z,65.44
2023-03-04T12:54:21.899Z,65.66
2023-03-04T12:57:24.439Z,65.27
2023-03-04T13:00:12.747Z,65.27
2023-03-04T13:03:05.325Z,64.85
2023-03-04T13:05:41.075Z,64.73
2023-03-04T13:08:22.984Z,64.97
2023-03-04T13:10:50.985Z,65.47
2023-03-04T13:13:32.654Z,64.21
2023-03-04T13:16:05.043Z,64.63
2023-03-04T13:18:36.637Z,65.24
2023-03-04T13:21:13.449Z,65.48
2023-03-04T13:23:40.782Z,65.36
2023-03-04T13:26:37.766Z,64.98
2023-03-04T13:29:13.435Z,64.92
2023-03-04T13:32:05.317Z,71.44
2023-03-04T13:35:01.477Z,66.25
2023-03-04T13:37:36.254Z,65.98
2023-03-04T13:40:22.560Z,64.67
2023-03-04T13:42:49.895Z,65.52
2023-03-04T13:45:36.281Z,64.90
2023-03-04T13:48:05.298Z,65.07
2023-03-04T13:50:39.261Z,65.22
2023-03-04T13:53:27.012Z,65.00
2023-03-04T13:56:12.797Z,64.95
2023-03-04T13:58:39.835Z,65.54
2023-03-04T14:01:18.221Z,64.80
2023-03-04T14:03:45.080Z,65.08
2023-03-04T14:06:19.694Z,64.48
2023-03-04T14:08:47.272Z,64.61
2023-03-04T14:11:32.170Z,64.28
2023-03-04T14:14:00.923Z,64.78
2023-03-04T14:16:29.574Z,64.59
2023-03-04T14:19:04.740Z,64.79
2023-03-04T14:21:31.734Z,64.80
2023-03-04T14:24:03.685Z,64.81
2023-03-04T14:26:31.216Z,64.85
2023-03-04T14:28:59.599Z,64.63
2023-03-04T14:31:30.146Z,64.66
2023-03-04T14:34:02.247Z,64.62
2023-03-04T14:36:36.242Z,64.48
2023-03-04T14:39:05.944Z,64.39
2023-03-04T14:41:38.381Z,64.42
2023-03-04T14:44:20.067Z,64.84
2023-03-04T14:47:04.640Z,64.79
2023-03-04T14:49:35.889Z,64.73
2023-03-04T14:52:02.677Z,64.67
2023-03-04T14:54:40.684Z,64.15
2023-03-04T14:57:29.905Z,64.11
2023-03-04T14:59:56.775Z,64.85
2023-03-04T15:02:36.163Z,63.66
2023-03-04T15:05:17.480Z,63.91
2023-03-04T15:07:51.095Z,63.75
2023-03-04T15:10:22.116Z,63.99
2023-03-04T15:12:56.558Z,63.94
2023-03-04T15:15:42.515Z,64.02
2023-03-04T15:18:27.146Z,63.85
2023-03-04T15:21:05.353Z,64.09
2023-03-04T15:23:33.670Z,64.10
2023-03-04T15:26:02.854Z,64.25
2023-03-04T15:28:35.883Z,64.23
2023-03-04T15:31:03.599Z,64.21
2023-03-04T15:33:30.361Z,64.52
2023-03-04T15:36:01.944Z,64.49
2023-03-04T15:38:29.454Z,64.42
2023-03-04T15:40:59.540Z,64.54
2023-03-04T15:43:26.574Z,64.68
2023-03-04T15:45:53.460Z,64.54
2023-03-04T15:48:20.746Z,64.60
2023-03-04T15:50:55.753Z,64.59
2023-03-04T15:53:40.993Z,64.53
2023-03-04T15:56:16.868Z,65.09
2023-03-04T15:58:44.297Z,65.06
2023-03-04T16:01:16.094Z,64.72
2023-03-04T16:03:42.859Z,64.95
2023-03-04T16:06:13.539Z,64.93
2023-03-04T16:08:41.023Z,64.91
2023-03-04T16:11:13.391Z,64.81
2023-03-04T16:13:40.182Z,64.89
2023-03-04T16:16:11.192Z,65.01
2023-03-04T16:18:38.554Z,65.17
2023-03-04T16:21:06.307Z,65.39
2023-03-04T16:23:39.634Z,65.21
2023-03-04T16:26:17.665Z,65.47
2023-03-04T16:28:44.673Z,65.50
2023-03-04T16:31:12.832Z,65.09
2023-03-04T16:33:39.636Z,65.31
2023-03-04T16:36:24.665Z,65.58
2023-03-04T16:38:52.383Z,65.91
2023-03-04T16:41:23.305Z,66.88
2023-03-04T16:43:49.956Z,66.32
2023-03-04T16:46:16.664Z,65.97
2023-03-04T16:48:43.470Z,65.99
2023-03-04T16:51:39.811Z,66.06
2023-03-04T16:54:08.146Z,65.88
2023-03-04T16:56:34.791Z,66.25
2023-03-04T16:59:01.474Z,66.13
2023-03-04T17:01:29.339Z,66.08
2023-03-04T17:03:56.378Z,65.99
2023-03-04T17:06:24.105Z,66.15
2023-03-04T17:08:50.876Z,66.11
2023-03-04T17:11:20.958Z,66.29
2023-03-04T17:13:48.407Z,66.27
2023-03-04T17:16:15.577Z,66.15
2023-03-04T17:18:42.606Z,66.63
2023-03-04T17:21:13.160Z,66.53
2023-03-04T17:23:39.875Z,66.58
2023-03-04T17:26:06.494Z,66.57
2023-03-04T17:28:33.584Z,66.49
2023-03-04T17:31:00.334Z,66.38
2023-03-04T17:33:27.170Z,66.43
2023-03-04T17:35:54.341Z,66.41
2023-03-04T17:38:21.002Z,66.57
2023-03-04T17:40:47.885Z,66.59
2023-03-04T17:43:14.577Z,66.49
2023-03-04T17:45:42.289Z,66.83
2023-03-04T17:48:15.068Z,66.81
2023-03-04T17:50:49.901Z,66.97
2023-03-04T17:53:17.244Z,66.49
2023-03-04T17:56:04.802Z,66.99
2023-03-04T17:58:33.129Z,66.70
2023-03-04T18:01:02.565Z,66.66
2023-03-04T18:03:29.391Z,66.94
2023-03-04T18:05:56.190Z,66.68
2023-03-04T18:08:24.137Z,67.04
2023-03-04T18:10:51.086Z,66.89
2023-03-04T18:13:17.760Z,67.03
2023-03-04T18:15:44.920Z,67.22
2023-03-04T18:18:11.720Z,67.17
2023-03-04T18:20:38.482Z,67.18
2023-03-04T18:23:05.380Z,67.27
2023-03-04T18:25:32.064Z,67.37
2023-03-04T18:27:58.903Z,67.16
2023-03-04T18:30:28.538Z,67.14
2023-03-04T18:32:56.552Z,67.17
2023-03-04T18:35:23.476Z,67.29
2023-03-04T18:37:50.209Z,67.48
2023-03-04T18:40:17.118Z,67.34
2023-03-04T18:42:44.573Z,67.46
2023-03-04T18:45:12.656Z,67.71
2023-03-04T18:47:41.031Z,67.67
2023-03-04T18:50:09.260Z,67.70
2023-03-04T18:52:36.111Z,67.71
2023-03-04T18:55:03.009Z,68.03
2023-03-04T18:57:29.862Z,67.81
2023-03-04T18:59:59.205Z,67.93
2023-03-04T19:02:58.234Z,68.60
2023-03-04T19:05:27.708Z,68.05
2023-03-04T19:07:54.900Z,68.21
2023-03-04T19:10:21.772Z,67.88
2023-03-04T19:12:48.546Z,68.29
2023-03-04T19:15:15.585Z,67.94
2023-03-04T19:17:45.266Z,68.11
2023-03-04T19:20:12.595Z,68.09
2023-03-04T19:22:39.409Z,68.20
2023-03-04T19:25:06.772Z,68.22
2023-03-04T19:27:33.555Z,68.30
2023-03-04T19:30:00.305Z,68.16
2023-03-04T19:32:27.235Z,68.53
2023-03-04T19:34:54.034Z,68.99
2023-03-04T19:37:20.805Z,68.82
2023-03-04T19:39:49.140Z,68.96
2023-03-04T19:42:16.222Z,69.07
2023-03-04T19:44:44.994Z,69.10
2023-03-04T19:47:12.287Z,69.06
2023-03-04T19:49:39.247Z,69.28
2023-03-04T19:52:05.990Z,69.43
2023-03-04T19:54:33.466Z,69.32
2023-03-04T19:57:00.133Z,69.35
2023-03-04T19:59:26.968Z,69.50
2023-03-04T20:01:54.131Z,69.47
2023-03-04T20:04:21.559Z,69.33
2023-03-04T20:06:50.428Z,69.58
2023-03-04T20:09:17.778Z,69.74
2023-03-04T20:11:57.272Z,69.71
2023-03-04T20:14:28.762Z,69.45
2023-03-04T20:17:00.591Z,69.67
2023-03-04T20:19:27.445Z,69.59
2023-03-04T20:21:54.364Z,69.84
2023-03-04T20:24:23.172Z,70.12
2023-03-04T20:26:50.559Z,69.91
2023-03-04T20:29:17.917Z,70.04
2023-03-04T20:31:46.280Z,70.37
2023-03-04T20:34:13.358Z,70.18
2023-03-04T20:36:40.050Z,69.77
2023-03-04T20:39:18.355Z,69.96
2023-03-04T20:41:52.549Z,70.18
2023-03-04T20:44:19.431Z,70.49
2023-03-04T20:46:46.515Z,70.57
2023-03-04T20:49:24.600Z,70.53
2023-03-04T20:52:02.792Z,70.11
2023-03-04T20:54:30.299Z,70.13
2023-03-04T20:56:57.048Z,70.26
2023-03-04T20:59:23.857Z,70.19
2023-03-04T21:01:51.258Z,70.14
2023-03-04T21:04:18.776Z,70.44
2023-03-04T21:06:47.380Z,70.43
2023-03-04T21:09:19.143Z,70.38
2023-03-04T21:11:46.514Z,70.17
2023-03-04T21:14:15.683Z,70.41
2023-03-04T21:16:43.062Z,70.64
2023-03-04T21:19:15.309Z,71.31
2023-03-04T21:21:42.022Z,70.58
2023-03-04T21:24:13.355Z,70.89
2023-03-04T21:26:40.088Z,70.76
2023-03-04T21:29:06.964Z,71.07
2023-03-04T21:31:37.350Z,71.35
2023-03-04T21:34:04.129Z,71.12
2023-03-04T21:36:31.034Z,71.04
2023-03-04T21:38:57.699Z,71.10
2023-03-04T21:41:24.670Z,70.81
2023-03-04T21:43:51.670Z,71.05
2023-03-04T21:46:19.016Z,70.90
2023-03-04T21:48:47.687Z,71.16
2023-03-04T21:51:16.150Z,70.86
2023-03-04T21:53:43.451Z,71.27
2023-03-04T21:56:11.316Z,71.25
2023-03-04T21:58:41.972Z,70.85
2023-03-04T22:01:10.778Z,70.97
2023-03-04T22:03:37.548Z,70.99
2023-03-04T22:06:07.913Z,71.03
2023-03-04T22:08:34.694Z,71.37
2023-03-04T22:11:06.176Z,71.65
2023-03-04T22:13:33.290Z,71.48
2023-03-04T22:16:00.304Z,71.59
2023-03-04T22:18:27.749Z,71.85
2023-03-04T22:21:06.779Z,71.36
2023-03-04T22:23:33.838Z,71.27
2023-03-04T22:26:10.732Z,72.20
2023-03-04T22:28:38.268Z,71.44
2023-03-04T22:31:26.305Z,71.72
2023-03-04T22:33:53.035Z,71.80
2023-03-04T22:36:19.802Z,71.82
2023-03-04T22:38:46.556Z,72.03
2023-03-04T22:41:14.949Z,71.62
2023-03-04T22:43:41.811Z,71.81
2023-03-04T22:46:13.927Z,72.12
2023-03-04T22:48:40.904Z,71.95
2023-03-04T22:51:08.758Z,71.58
2023-03-04T22:53:35.647Z,71.92
2023-03-04T22:56:02.404Z,71.34
2023-03-04T22:58:29.163Z,71.42
2023-03-04T23:00:55.952Z,71.82
2023-03-04T23:03:22.699Z,72.13
2023-03-04T23:05:49.664Z,72.03
2023-03-04T23:08:16.352Z,71.77
2023-03-04T23:10:43.107Z,71.70
2023-03-04T23:13:09.754Z,71.78
2023-03-04T23:15:36.542Z,72.08
2023-03-04T23:18:03.289Z,71.93
2023-03-04T23:20:30.013Z,71.76
2023-03-04T23:22:56.808Z,71.48
2023-03-04T23:25:24.870Z,71.72
2023-03-04T23:27:51.488Z,71.83
2023-03-04T23:30:18.282Z,71.99
2023-03-04T23:32:45.114Z,71.84
2023-03-04T23:35:12.140Z,72.51
2023-03-04T23:37:38.926Z,72.01
2023-03-04T23:40:06.336Z,71.87
2023-03-04T23:42:33.135Z,71.77
2023-03-04T23:44:59.870Z,71.41
2023-03-04T23:47:26.577Z,71.75
2023-03-04T23:49:53.308Z,71.81
2023-03-04T23:52:20.127Z,71.96
2023-03-04T23:54:46.883Z,72.06
2023-03-04T23:57:13.623Z,72.01
2023-03-04T23:59:40.381Z,71.87
